Time,TemperatureF,DewpointF,PressureIn,WindDirection,WindDirectionDegrees,WindSpeedMPH,WindSpeedGustMPH,Humidity,HourlyPrecipIn,Conditions,Clouds,dailyrainin,SoftwareType,DateUTC
2013-05-02 00:01:00,43.7,30.3,29.94,SSW,202,1.3,1.3,59,0.00,,---,0.00,VWS V14.01,2013-05-02 04:01:00,
2013-05-02 00:02:00,43.5,30.6,29.94,SSW,202,1.1,1.3,60,0.00,,---,0.00,VWS V14.01,2013-05-02 04:02:00,
2013-05-02 00:04:00,43.5,30.6,29.94,SSW,202,2.2,2.5,60,0.00,,---,0.00,VWS V14.01,2013-05-02 04:04:00,
2013-05-02 00:05:00,43.3,30.4,29.94,SSW,202,1.3,2.2,60,0.00,,---,0.00,VWS V14.01,2013-05-02 04:05:00,
2013-05-02 00:10:00,43.0,30.1,29.94,SSW,202,1.6,1.6,60,0.00,,---,0.00,VWS V14.01,2013-05-02 04:10:00,
2013-05-02 00:12:00,43.0,30.5,29.94,SSW,202,0.0,0.9,61,0.00,,---,0.00,VWS V14.01,2013-05-02 04:12:00,
2013-05-02 00:17:00,43.0,30.1,29.94,SSW,202,0.0,0.0,60,0.00,,---,0.00,VWS V14.01,2013-05-02 04:17:00,
2013-05-02 00:23:00,42.8,30.7,29.94,SSW,202,0.0,0.0,62,0.00,,---,0.00,VWS V14.01,2013-05-02 04:23:00,
2013-05-02 00:28:00,42.6,30.1,29.94,SSW,202,1.6,1.6,61,0.00,,---,0.00,VWS V14.01,2013-05-02 04:28:00,
2013-05-02 00:34:00,42.3,30.6,29.94,SSW,202,1.6,2.2,63,0.00,,---,0.00,VWS V14.01,2013-05-02 04:34:00,
2013-05-02 00:39:00,42.4,31.1,29.94,SSW,202,1.1,2.2,64,0.00,,---,0.00,VWS V14.01,2013-05-02 04:39:00,
2013-05-02 00:44:00,42.4,31.1,29.94,SSW,202,2.0,2.2,64,0.00,,---,0.00,VWS V14.01,2013-05-02 04:44:00,
2013-05-02 00:49:00,42.1,31.2,29.94,SSW,202,0.0,1.1,65,0.00,,---,0.00,VWS V14.01,2013-05-02 04:49:00,
2013-05-02 00:54:00,41.9,30.2,29.94,SSW,202,2.0,2.5,63,0.00,,---,0.00,VWS V14.01,2013-05-02 04:54:00,
2013-05-02 00:59:00,41.9,31.0,29.94,SSW,202,1.3,2.2,65,0.00,,---,0.00,VWS V14.01,2013-05-02 04:59:00,
2013-05-02 01:04:00,41.7,30.8,29.94,SSW,202,0.0,0.0,65,0.00,,---,0.00,VWS V14.01,2013-05-02 05:04:00,
2013-05-02 01:10:00,41.4,30.9,29.94,SSW,202,2.2,2.5,66,0.00,,---,0.00,VWS V14.01,2013-05-02 05:10:00,
2013-05-02 01:15:00,41.2,30.7,29.94,SSW,202,1.6,1.6,66,0.00,,---,0.00,VWS V14.01,2013-05-02 05:15:00,
2013-05-02 01:20:00,41.0,30.9,29.94,SSW,202,1.6,1.6,67,0.00,,---,0.00,VWS V14.01,2013-05-02 05:20:00,
2013-05-02 01:25:00,41.0,30.5,29.94,SSW,202,1.3,1.3,66,0.00,,---,0.00,VWS V14.01,2013-05-02 05:25:00,
2013-05-02 01:30:00,40.6,30.9,29.94,SSW,202,1.6,2.2,68,0.00,,---,0.00,VWS V14.01,2013-05-02 05:30:00,
2013-05-02 01:35:00,40.5,30.8,29.94,SSW,202,0.0,0.0,68,0.00,,---,0.00,VWS V14.01,2013-05-02 05:35:00,
2013-05-02 01:41:00,40.5,30.8,29.94,SSW,202,0.0,0.0,68,0.00,,---,0.00,VWS V14.01,2013-05-02 05:41:00,
2013-05-02 01:47:00,40.3,30.6,29.94,SSW,202,1.3,1.6,68,0.00,,---,0.00,VWS V14.01,2013-05-02 05:47:00,
2013-05-02 01:52:00,40.1,30.4,29.94,SSW,202,1.3,2.0,68,0.00,,---,0.00,VWS V14.01,2013-05-02 05:52:00,
2013-05-02 01:58:00,40.1,30.4,29.94,SSW,202,2.2,2.2,68,0.00,,---,0.00,VWS V14.01,2013-05-02 05:58:00,
2013-05-02 02:03:00,40.1,30.4,29.94,SSW,202,2.2,2.2,68,0.00,,---,0.00,VWS V14.01,2013-05-02 06:03:00,
2013-05-02 02:08:00,40.1,30.4,29.94,SSW,202,0.0,1.1,68,0.00,,---,0.00,VWS V14.01,2013-05-02 06:08:00,
2013-05-02 02:13:00,40.1,30.4,29.94,SSW,202,0.0,0.0,68,0.00,,---,0.00,VWS V14.01,2013-05-02 06:13:00,
2013-05-02 02:18:00,40.1,30.4,29.94,SSW,202,0.0,0.0,68,0.00,,---,0.00,VWS V14.01,2013-05-02 06:18:00,
2013-05-02 02:23:00,40.1,30.4,29.94,SSW,202,1.1,1.3,68,0.00,,---,0.00,VWS V14.01,2013-05-02 06:23:00,
2013-05-02 02:29:00,40.1,30.4,29.94,SSW,202,1.6,1.6,68,0.00,,---,0.00,VWS V14.01,2013-05-02 06:29:00,
2013-05-02 02:34:00,40.1,30.4,29.94,SSW,202,1.1,1.3,68,0.00,,---,0.00,VWS V14.01,2013-05-02 06:34:00,
2013-05-02 02:40:00,40.1,30.4,29.94,SSW,202,0.0,0.0,68,0.00,,---,0.00,VWS V14.01,2013-05-02 06:40:00,
2013-05-02 02:45:00,40.1,30.4,29.94,SSW,202,2.0,2.0,68,0.00,,---,0.00,VWS V14.01,2013-05-02 06:45:00,
2013-05-02 02:50:00,40.1,30.4,29.94,SSW,202,0.9,2.0,68,0.00,,---,0.00,VWS V14.01,2013-05-02 06:50:00,
2013-05-02 02:55:00,38.3,29.7,29.94,SSW,202,0.0,0.0,71,0.00,,---,0.00,VWS V14.01,2013-05-02 06:55:00,
2013-05-02 03:00:00,38.1,29.6,29.94,SSW,202,1.3,1.6,71,0.00,,---,0.00,VWS V14.01,2013-05-02 07:00:00,
2013-05-02 03:06:00,38.1,29.6,29.94,SSW,202,1.3,1.6,71,0.00,,---,0.00,VWS V14.01,2013-05-02 07:06:00,
2013-05-02 03:11:00,37.9,30.1,29.94,SSW,202,1.3,1.3,73,0.00,,---,0.00,VWS V14.01,2013-05-02 07:11:00,
2013-05-02 03:16:00,37.8,29.6,29.94,SSW,202,0.9,1.3,72,0.00,,---,0.00,VWS V14.01,2013-05-02 07:16:00,
2013-05-02 03:21:00,37.6,29.4,29.94,SSW,202,1.6,2.2,72,0.00,,---,0.00,VWS V14.01,2013-05-02 07:21:00,
2013-05-02 03:26:00,37.4,29.5,29.94,SSW,202,0.0,1.3,73,0.00,,---,0.00,VWS V14.01,2013-05-02 07:26:00,
2013-05-02 03:31:00,37.2,29.4,29.94,SSW,202,0.0,0.0,73,0.00,,---,0.00,VWS V14.01,2013-05-02 07:31:00,
2013-05-02 03:36:00,37.2,29.4,29.94,SSW,202,1.6,1.6,73,0.00,,---,0.00,VWS V14.01,2013-05-02 07:36:00,
2013-05-02 03:42:00,37.0,29.2,29.94,SSW,202,2.0,2.0,73,0.00,,---,0.00,VWS V14.01,2013-05-02 07:42:00,
2013-05-02 03:47:00,37.0,29.5,29.94,SSW,202,2.2,2.5,74,0.00,,---,0.00,VWS V14.01,2013-05-02 07:47:00,
2013-05-02 03:52:00,36.9,29.4,29.94,SSW,202,2.0,2.2,74,0.00,,---,0.00,VWS V14.01,2013-05-02 07:52:00,
2013-05-02 03:57:00,36.9,29.7,29.94,SSW,202,0.0,0.9,75,0.00,,---,0.00,VWS V14.01,2013-05-02 07:57:00,
2013-05-02 04:03:00,36.7,29.5,29.94,SSW,202,1.6,1.6,75,0.00,,---,0.00,VWS V14.01,2013-05-02 08:03:00,
2013-05-02 04:08:00,36.5,29.3,29.94,SSW,202,2.0,2.0,75,0.00,,---,0.00,VWS V14.01,2013-05-02 08:08:00,
2013-05-02 04:14:00,36.3,29.2,29.94,SSW,202,1.6,2.0,75,0.00,,---,0.00,VWS V14.01,2013-05-02 08:14:00,
2013-05-02 04:20:00,36.1,29.0,29.94,SSW,202,2.0,2.0,75,0.00,,---,0.00,VWS V14.01,2013-05-02 08:20:00,
2013-05-02 04:25:00,36.1,29.0,29.94,SSW,202,1.1,1.6,75,0.00,,---,0.00,VWS V14.01,2013-05-02 08:25:00,
2013-05-02 04:30:00,36.0,28.8,29.94,SSW,202,2.0,2.0,75,0.00,,---,0.00,VWS V14.01,2013-05-02 08:30:00,
2013-05-02 04:35:00,36.1,29.0,29.94,SSW,202,1.1,1.1,75,0.00,,---,0.00,VWS V14.01,2013-05-02 08:35:00,
2013-05-02 04:40:00,36.1,29.3,29.94,SSW,202,0.0,0.0,76,0.00,,---,0.00,VWS V14.01,2013-05-02 08:40:00,
2013-05-02 04:45:00,36.3,29.5,29.94,SSW,202,0.0,0.0,76,0.00,,---,0.00,VWS V14.01,2013-05-02 08:45:00,
2013-05-02 04:50:00,36.1,29.3,29.94,SSW,202,1.3,2.0,76,0.00,,---,0.00,VWS V14.01,2013-05-02 08:50:00,
2013-05-02 04:55:00,36.1,29.3,29.94,SSW,202,2.2,2.2,76,0.00,,---,0.00,VWS V14.01,2013-05-02 08:55:00,
2013-05-02 05:00:00,36.0,29.1,29.94,SSW,202,1.1,1.3,76,0.00,,---,0.00,VWS V14.01,2013-05-02 09:00:00,
2013-05-02 05:05:00,36.0,29.1,29.94,SSW,202,0.0,0.0,76,0.00,,---,0.00,VWS V14.01,2013-05-02 09:05:00,
2013-05-02 05:10:00,35.8,29.0,29.94,SSW,202,0.0,0.0,76,0.00,,---,0.00,VWS V14.01,2013-05-02 09:10:00,
2013-05-02 05:15:00,35.6,29.1,29.94,SSW,202,0.0,1.3,77,0.00,,---,0.00,VWS V14.01,2013-05-02 09:15:00,
2013-05-02 05:20:00,35.6,28.8,29.94,SSW,202,0.0,0.0,76,0.00,,---,0.00,VWS V14.01,2013-05-02 09:20:00,
2013-05-02 05:25:00,35.4,28.9,29.94,SSW,202,0.0,0.0,77,0.00,,---,0.00,VWS V14.01,2013-05-02 09:25:00,
2013-05-02 05:30:00,35.4,28.9,29.94,SSW,202,1.3,1.3,77,0.00,,---,0.00,VWS V14.01,2013-05-02 09:30:00,
2013-05-02 05:36:00,35.4,29.2,29.94,SSW,202,0.0,0.0,78,0.00,,---,0.00,VWS V14.01,2013-05-02 09:36:00,
2013-05-02 05:41:00,35.2,29.1,29.94,SSW,202,0.0,0.0,78,0.00,,---,0.00,VWS V14.01,2013-05-02 09:41:00,
2013-05-02 05:47:00,35.2,29.1,29.94,SSW,202,0.0,0.0,78,0.00,,---,0.00,VWS V14.01,2013-05-02 09:47:00,
2013-05-02 05:52:00,35.2,28.8,29.94,SSW,202,1.6,1.6,77,0.00,,---,0.00,VWS V14.01,2013-05-02 09:52:00,
2013-05-02 05:57:00,35.4,28.9,29.97,SSW,202,2.5,2.5,77,0.00,,---,0.00,VWS V14.01,2013-05-02 09:57:00,
2013-05-02 06:02:00,35.4,28.9,29.97,SSW,202,2.2,2.2,77,0.00,,---,0.00,VWS V14.01,2013-05-02 10:02:00,
2013-05-02 06:08:00,35.6,29.1,29.97,SSW,202,1.3,2.0,77,0.00,,---,0.00,VWS V14.01,2013-05-02 10:08:00,
2013-05-02 06:13:00,35.6,29.4,29.97,SSW,202,2.0,2.0,78,0.00,,---,0.00,VWS V14.01,2013-05-02 10:13:00,
2013-05-02 06:19:00,35.8,29.6,29.97,SSW,202,1.3,1.6,78,0.00,,---,0.00,VWS V14.01,2013-05-02 10:19:00,
2013-05-02 06:24:00,35.8,29.9,29.97,SSW,202,1.6,2.0,79,0.00,,---,0.00,VWS V14.01,2013-05-02 10:24:00,
2013-05-02 06:29:00,36.1,30.3,29.97,SSW,202,0.0,1.1,79,0.00,,---,0.00,VWS V14.01,2013-05-02 10:29:00,
2013-05-02 06:34:00,36.3,30.8,29.97,SSW,202,0.0,0.0,80,0.00,,---,0.00,VWS V14.01,2013-05-02 10:34:00,
2013-05-02 06:39:00,36.7,31.1,29.97,SSW,202,0.0,0.0,80,0.00,,---,0.00,VWS V14.01,2013-05-02 10:39:00,
2013-05-02 06:45:00,37.0,31.5,29.97,SSW,202,0.0,0.0,80,0.00,,---,0.00,VWS V14.01,2013-05-02 10:45:00,
2013-05-02 06:50:00,37.6,31.7,29.97,SSW,202,0.0,0.0,79,0.00,,---,0.00,VWS V14.01,2013-05-02 10:50:00,
2013-05-02 06:55:00,37.9,32.0,29.97,SSW,202,0.0,0.0,79,0.00,,---,0.00,VWS V14.01,2013-05-02 10:55:00,
2013-05-02 07:00:00,38.5,32.5,29.97,SSW,202,0.0,0.0,79,0.00,,---,0.00,VWS V14.01,2013-05-02 11:00:00,
2013-05-02 07:05:00,39.0,33.4,29.97,SSW,202,0.0,0.0,80,0.00,,---,0.00,VWS V14.01,2013-05-02 11:05:00,
2013-05-02 07:10:00,39.4,33.7,29.97,SSW,202,0.0,0.0,80,0.00,,---,0.00,VWS V14.01,2013-05-02 11:10:00,
2013-05-02 07:15:00,39.9,34.3,29.97,SSW,202,0.0,0.0,80,0.00,,---,0.00,VWS V14.01,2013-05-02 11:15:00,
2013-05-02 07:21:00,40.8,34.8,29.97,SSW,202,0.0,0.0,79,0.00,,---,0.00,VWS V14.01,2013-05-02 11:21:00,
2013-05-02 07:26:00,42.1,36.0,29.97,SSW,202,0.0,0.0,79,0.00,,---,0.00,VWS V14.01,2013-05-02 11:26:00,
2013-05-02 07:31:00,43.0,36.6,29.97,SSW,202,0.0,0.0,78,0.00,,---,0.00,VWS V14.01,2013-05-02 11:31:00,
2013-05-02 07:37:00,44.1,37.3,29.97,SSW,202,0.0,0.0,77,0.00,,---,0.00,VWS V14.01,2013-05-02 11:37:00,
2013-05-02 07:43:00,45.3,37.9,29.97,SSW,202,0.0,0.0,75,0.00,,---,0.00,VWS V14.01,2013-05-02 11:43:00,
2013-05-02 07:48:00,46.2,38.4,29.97,SSW,202,0.0,0.0,74,0.00,,---,0.00,VWS V14.01,2013-05-02 11:48:00,
2013-05-02 07:53:00,47.3,39.1,29.97,SSW,202,0.0,0.9,73,0.00,,---,0.00,VWS V14.01,2013-05-02 11:53:00,
2013-05-02 07:58:00,48.0,39.4,29.97,SSW,202,0.0,0.0,72,0.00,,---,0.00,VWS V14.01,2013-05-02 11:58:00,
2013-05-02 08:03:00,48.9,39.9,29.97,SSW,202,0.9,1.3,71,0.00,,---,0.00,VWS V14.01,2013-05-02 12:03:00,
2013-05-02 08:09:00,49.6,40.3,29.97,SSW,202,0.0,0.0,70,0.00,,---,0.00,VWS V14.01,2013-05-02 12:09:00,
2013-05-02 08:14:00,50.4,40.2,29.97,SSW,202,0.0,0.0,68,0.00,,---,0.00,VWS V14.01,2013-05-02 12:14:00,
2013-05-02 08:19:00,50.7,40.2,29.97,SSW,202,2.0,2.0,67,0.00,,---,0.00,VWS V14.01,2013-05-02 12:19:00,
2013-05-02 08:24:00,51.4,40.1,29.97,South,180,0.0,0.0,65,0.00,,---,0.00,VWS V14.01,2013-05-02 12:24:00,
2013-05-02 08:29:00,52.0,40.2,29.94,South,180,0.0,0.0,64,0.00,,---,0.00,VWS V14.01,2013-05-02 12:29:00,
2013-05-02 08:34:00,52.7,40.5,29.94,SSW,202,1.3,1.6,63,0.00,,---,0.00,VWS V14.01,2013-05-02 12:34:00,
2013-05-02 08:39:00,54.0,40.0,29.94,ENE,68,2.0,2.9,59,0.00,,---,0.00,VWS V14.01,2013-05-02 12:39:00,
2013-05-02 08:44:00,55.2,40.3,29.94,ENE,68,1.6,2.0,57,0.00,,---,0.00,VWS V14.01,2013-05-02 12:44:00,
2013-05-02 08:49:00,55.9,39.1,29.94,ENE,68,3.1,3.1,53,0.00,,---,0.00,VWS V14.01,2013-05-02 12:49:00,
2013-05-02 08:54:00,57.0,38.6,29.94,NE,45,3.1,3.4,50,0.00,,---,0.00,VWS V14.01,2013-05-02 12:54:00,
2013-05-02 08:59:00,57.6,38.6,29.94,ENE,68,1.3,2.9,49,0.00,,---,0.00,VWS V14.01,2013-05-02 12:59:00,
2013-05-02 09:04:00,58.1,37.5,29.94,ENE,68,2.0,2.9,46,0.00,,---,0.00,VWS V14.01,2013-05-02 13:04:00,
2013-05-02 09:09:00,58.5,38.3,29.94,ENE,68,0.0,1.3,47,0.00,,---,0.00,VWS V14.01,2013-05-02 13:09:00,
2013-05-02 09:14:00,59.0,38.3,29.94,ENE,68,1.6,2.7,46,0.00,,---,0.00,VWS V14.01,2013-05-02 13:14:00,
2013-05-02 09:19:00,59.7,38.4,29.94,NNE,22,0.9,2.2,45,0.00,,---,0.00,VWS V14.01,2013-05-02 13:19:00,
2013-05-02 09:25:00,60.4,37.9,29.94,NNE,22,2.9,2.9,43,0.00,,---,0.00,VWS V14.01,2013-05-02 13:25:00,
2013-05-02 09:31:00,61.2,38.5,29.94,NNE,22,2.7,2.7,43,0.00,,---,0.00,VWS V14.01,2013-05-02 13:31:00,
2013-05-02 09:36:00,61.9,37.3,29.94,NE,45,2.7,3.4,40,0.00,,---,0.00,VWS V14.01,2013-05-02 13:36:00,
2013-05-02 09:41:00,62.2,37.0,29.94,ENE,68,4.0,4.0,39,0.00,,---,0.00,VWS V14.01,2013-05-02 13:41:00,
2013-05-02 09:46:00,62.8,36.8,29.94,ENE,68,2.2,3.4,38,0.00,,---,0.00,VWS V14.01,2013-05-02 13:46:00,
2013-05-02 09:51:00,63.5,38.1,29.94,ENE,68,0.9,2.0,39,0.00,,---,0.00,VWS V14.01,2013-05-02 13:51:00,
2013-05-02 09:56:00,63.9,37.8,29.94,ENE,68,2.7,2.7,38,0.00,,---,0.00,VWS V14.01,2013-05-02 13:56:00,
2013-05-02 10:01:00,64.8,37.2,29.94,ENE,68,0.9,1.6,36,0.00,,---,0.00,VWS V14.01,2013-05-02 14:01:00,
2013-05-02 10:07:00,65.1,37.5,29.94,SW,225,1.1,2.5,36,0.00,,---,0.00,VWS V14.01,2013-05-02 14:07:00,
2013-05-02 10:12:00,66.0,38.3,29.91,SSW,202,2.5,2.7,36,0.00,,---,0.00,VWS V14.01,2013-05-02 14:12:00,
2013-05-02 10:18:00,67.6,39.0,29.91,WSW,248,2.0,2.9,35,0.00,,---,0.00,VWS V14.01,2013-05-02 14:18:00,
2013-05-02 10:23:00,68.5,39.1,29.91,South,180,0.0,1.3,34,0.00,,---,0.00,VWS V14.01,2013-05-02 14:23:00,
2013-05-02 10:29:00,70.0,40.3,29.91,NNE,22,2.0,3.1,34,0.00,,---,0.00,VWS V14.01,2013-05-02 14:29:00,
2013-05-02 10:34:00,70.5,40.1,29.91,NE,45,1.6,2.5,33,0.00,,---,0.00,VWS V14.01,2013-05-02 14:34:00,
2013-05-02 10:39:00,70.5,39.3,29.91,East,90,1.3,2.0,32,0.00,,---,0.00,VWS V14.01,2013-05-02 14:39:00,
2013-05-02 10:45:00,71.1,40.5,29.91,NNW,338,0.0,1.3,33,0.00,,---,0.00,VWS V14.01,2013-05-02 14:45:00,
2013-05-02 10:50:00,71.6,40.2,29.91,SSW,202,0.0,2.5,32,0.00,,---,0.00,VWS V14.01,2013-05-02 14:50:00,
2013-05-02 10:55:00,72.0,40.5,29.91,SW,225,1.3,1.3,32,0.00,,---,0.00,VWS V14.01,2013-05-02 14:55:00,
2013-05-02 11:01:00,71.8,39.5,29.91,NE,45,2.0,2.9,31,0.00,,---,0.00,VWS V14.01,2013-05-02 15:01:00,
2013-05-02 11:06:00,71.6,39.4,29.91,NNE,22,2.9,2.9,31,0.00,,---,0.00,VWS V14.01,2013-05-02 15:06:00,
2013-05-02 11:11:00,71.8,39.5,29.91,WSW,248,0.0,0.0,31,0.00,,---,0.00,VWS V14.01,2013-05-02 15:11:00,
2013-05-02 11:16:00,72.1,39.0,29.91,WNW,292,2.5,2.5,30,0.00,,---,0.00,VWS V14.01,2013-05-02 15:16:00,
2013-05-02 11:21:00,72.5,39.3,29.91,WNW,292,2.5,3.1,30,0.00,,---,0.00,VWS V14.01,2013-05-02 15:21:00,
2013-05-02 11:26:00,72.3,37.4,29.91,East,90,0.9,2.9,28,0.00,,---,0.00,VWS V14.01,2013-05-02 15:26:00,
2013-05-02 11:31:00,72.7,38.6,29.91,NE,45,0.0,2.0,29,0.00,,---,0.00,VWS V14.01,2013-05-02 15:31:00,
2013-05-02 11:36:00,73.0,38.0,29.91,North,0,3.1,3.1,28,0.00,,---,0.00,VWS V14.01,2013-05-02 15:36:00,
2013-05-02 11:41:00,73.4,38.3,29.91,ENE,68,2.9,2.9,28,0.00,,---,0.00,VWS V14.01,2013-05-02 15:41:00,
2013-05-02 11:46:00,73.9,38.8,29.91,SSE,158,2.7,2.7,28,0.00,,---,0.00,VWS V14.01,2013-05-02 15:46:00,
2013-05-02 11:51:00,74.5,38.3,29.91,ENE,68,0.0,1.6,27,0.00,,---,0.00,VWS V14.01,2013-05-02 15:51:00,
2013-05-02 11:56:00,75.2,39.0,29.91,NE,45,3.8,3.8,27,0.00,,---,0.00,VWS V14.01,2013-05-02 15:56:00,
2013-05-02 12:01:00,75.6,39.3,29.91,SSW,202,2.9,3.6,27,0.00,,---,0.00,VWS V14.01,2013-05-02 16:01:00,
2013-05-02 12:06:00,76.1,40.7,29.91,NE,45,2.0,2.2,28,0.00,,---,0.00,VWS V14.01,2013-05-02 16:06:00,
2013-05-02 12:11:00,77.5,40.0,29.88,ENE,68,3.6,3.6,26,0.00,,---,0.00,VWS V14.01,2013-05-02 16:11:00,
2013-05-02 12:17:00,77.7,40.1,29.88,SW,225,1.3,1.3,26,0.00,,---,0.00,VWS V14.01,2013-05-02 16:17:00,
2013-05-02 12:23:00,78.4,41.7,29.88,NE,45,6.3,6.3,27,0.00,,---,0.00,VWS V14.01,2013-05-02 16:23:00,
2013-05-02 12:28:00,78.4,41.7,29.88,ENE,68,6.0,6.0,27,0.00,,---,0.00,VWS V14.01,2013-05-02 16:28:00,
2013-05-02 12:33:00,78.4,41.7,29.88,NNE,22,3.6,4.0,27,0.00,,---,0.00,VWS V14.01,2013-05-02 16:33:00,
2013-05-02 12:38:00,78.4,41.7,29.88,NNW,338,2.0,2.0,27,0.00,,---,0.00,VWS V14.01,2013-05-02 16:38:00,
2013-05-02 12:43:00,78.4,41.7,29.88,ENE,68,3.6,3.8,27,0.00,,---,0.00,VWS V14.01,2013-05-02 16:43:00,
2013-05-02 12:48:00,76.1,37.8,29.88,SW,225,1.3,2.5,25,0.00,,---,0.00,VWS V14.01,2013-05-02 16:48:00,
2013-05-02 12:53:00,75.7,38.5,29.88,ESE,112,2.9,2.9,26,0.00,,---,0.00,VWS V14.01,2013-05-02 16:53:00,
2013-05-02 12:58:00,75.4,37.2,29.88,ENE,68,0.9,4.0,25,0.00,,---,0.00,VWS V14.01,2013-05-02 16:58:00,
2013-05-02 13:03:00,74.8,37.7,29.88,ESE,112,1.3,4.9,26,0.00,,---,0.00,VWS V14.01,2013-05-02 17:03:00,
2013-05-02 13:08:00,74.7,37.5,29.88,East,90,3.8,3.8,26,0.00,,---,0.00,VWS V14.01,2013-05-02 17:08:00,
2013-05-02 13:13:00,74.5,37.4,29.88,ENE,68,3.1,3.8,26,0.00,,---,0.00,VWS V14.01,2013-05-02 17:13:00,
2013-05-02 13:18:00,74.7,37.5,29.88,NE,45,3.8,4.5,26,0.00,,---,0.00,VWS V14.01,2013-05-02 17:18:00,
2013-05-02 13:23:00,74.8,37.7,29.88,NNE,22,2.9,2.9,26,0.00,,---,0.00,VWS V14.01,2013-05-02 17:23:00,
2013-05-02 13:29:00,74.8,37.7,29.88,NE,45,2.5,2.5,26,0.00,,---,0.00,VWS V14.01,2013-05-02 17:29:00,
2013-05-02 13:34:00,74.7,37.5,29.88,NNE,22,2.7,3.6,26,0.00,,---,0.00,VWS V14.01,2013-05-02 17:34:00,
2013-05-02 13:40:00,74.1,37.1,29.88,NE,45,1.3,2.7,26,0.00,,---,0.00,VWS V14.01,2013-05-02 17:40:00,
2013-05-02 13:45:00,73.6,36.6,29.91,NE,45,4.0,4.3,26,0.00,,---,0.00,VWS V14.01,2013-05-02 17:45:00,
2013-05-02 13:50:00,73.0,36.2,29.91,NE,45,3.4,3.4,26,0.00,,---,0.00,VWS V14.01,2013-05-02 17:50:00,
2013-05-02 13:55:00,73.4,35.5,29.91,ENE,68,4.3,4.3,25,0.00,,---,0.00,VWS V14.01,2013-05-02 17:55:00,
2013-05-02 14:01:00,73.4,36.5,29.91,NNE,22,2.5,3.4,26,0.00,,---,0.00,VWS V14.01,2013-05-02 18:01:00,
2013-05-02 14:07:00,73.8,36.8,29.91,NE,45,3.1,3.1,26,0.00,,---,0.00,VWS V14.01,2013-05-02 18:07:00,
2013-05-02 14:13:00,74.5,37.4,29.91,NNE,22,1.3,2.5,26,0.00,,---,0.00,VWS V14.01,2013-05-02 18:13:00,
2013-05-02 14:18:00,74.3,37.2,29.91,ENE,68,2.5,6.3,26,0.00,,---,0.00,VWS V14.01,2013-05-02 18:18:00,
2013-05-02 14:23:00,73.4,36.5,29.91,NE,45,1.6,3.1,26,0.00,,---,0.00,VWS V14.01,2013-05-02 18:23:00,
2013-05-02 14:29:00,72.7,35.8,29.91,NNE,22,3.1,3.1,26,0.00,,---,0.00,VWS V14.01,2013-05-02 18:29:00,
2013-05-02 14:34:00,72.3,35.5,29.91,NE,45,2.7,2.7,26,0.00,,---,0.00,VWS V14.01,2013-05-02 18:34:00,
2013-05-02 14:39:00,72.1,36.3,29.91,ENE,68,1.6,3.1,27,0.00,,---,0.00,VWS V14.01,2013-05-02 18:39:00,
2013-05-02 14:44:00,71.4,38.4,29.91,NE,45,3.6,5.6,30,0.00,,---,0.00,VWS V14.01,2013-05-02 18:44:00,
2013-05-02 14:49:00,71.2,40.7,29.91,East,90,3.8,4.9,33,0.00,,---,0.00,VWS V14.01,2013-05-02 18:49:00,
2013-05-02 14:54:00,71.6,41.0,29.91,ENE,68,4.3,5.6,33,0.00,,---,0.00,VWS V14.01,2013-05-02 18:54:00,
2013-05-02 15:00:00,71.2,40.7,29.94,NE,45,5.6,9.6,33,0.00,,---,0.00,VWS V14.01,2013-05-02 19:00:00,
2013-05-02 15:05:00,70.7,40.2,29.94,NE,45,5.8,5.8,33,0.00,,---,0.00,VWS V14.01,2013-05-02 19:05:00,
2013-05-02 15:11:00,70.7,40.2,29.94,WSW,248,2.7,2.7,33,0.00,,---,0.00,VWS V14.01,2013-05-02 19:11:00,
2013-05-02 15:17:00,68.9,39.4,29.94,ENE,68,4.0,9.2,34,0.00,,---,0.00,VWS V14.01,2013-05-02 19:17:00,
2013-05-02 15:22:00,68.4,38.9,29.94,ENE,68,2.9,3.8,34,0.00,,---,0.00,VWS V14.01,2013-05-02 19:22:00,
2013-05-02 15:27:00,67.6,39.0,29.94,East,90,2.0,3.4,35,0.00,,---,0.00,VWS V14.01,2013-05-02 19:27:00,
2013-05-02 15:33:00,67.5,38.9,29.94,NW,315,1.3,2.9,35,0.00,,---,0.00,VWS V14.01,2013-05-02 19:33:00,
2013-05-02 15:38:00,67.6,39.0,29.94,South,180,2.2,2.2,35,0.00,,---,0.00,VWS V14.01,2013-05-02 19:38:00,
2013-05-02 15:43:00,67.3,38.7,29.94,East,90,4.3,4.3,35,0.00,,---,0.00,VWS V14.01,2013-05-02 19:43:00,
2013-05-02 15:49:00,67.3,38.7,29.94,East,90,3.1,4.7,35,0.00,,---,0.00,VWS V14.01,2013-05-02 19:49:00,
2013-05-02 15:54:00,68.5,39.8,29.94,North,0,0.9,3.8,35,0.00,,---,0.00,VWS V14.01,2013-05-02 19:54:00,
2013-05-02 16:00:00,68.4,38.9,29.94,WNW,292,1.3,2.2,34,0.00,,---,0.00,VWS V14.01,2013-05-02 20:00:00,
2013-05-02 16:05:00,68.5,39.1,29.94,WSW,248,3.4,3.8,34,0.00,,---,0.00,VWS V14.01,2013-05-02 20:05:00,
2013-05-02 16:10:00,68.9,39.4,29.94,ESE,112,3.8,5.4,34,0.00,,---,0.00,VWS V14.01,2013-05-02 20:10:00,
2013-05-02 16:15:00,71.1,41.3,29.97,East,90,4.3,4.3,34,0.00,,---,0.00,VWS V14.01,2013-05-02 20:15:00,
2013-05-02 16:21:00,72.3,41.6,29.97,NNE,22,2.0,2.5,33,0.00,,---,0.00,VWS V14.01,2013-05-02 20:21:00,
2013-05-02 16:27:00,71.6,40.2,29.97,West,270,1.3,2.5,32,0.00,,---,0.00,VWS V14.01,2013-05-02 20:27:00,
2013-05-02 16:33:00,71.4,40.8,29.94,ENE,68,4.3,6.0,33,0.00,,---,0.00,VWS V14.01,2013-05-02 20:33:00,
2013-05-02 16:39:00,71.2,40.7,29.94,WSW,248,4.7,4.7,33,0.00,,---,0.00,VWS V14.01,2013-05-02 20:39:00,
2013-05-02 16:45:00,69.1,38.8,29.94,SSE,158,4.3,4.3,33,0.00,,---,0.00,VWS V14.01,2013-05-02 20:45:00,
2013-05-02 16:50:00,67.6,37.5,29.94,ENE,68,5.4,5.6,33,0.00,,---,0.00,VWS V14.01,2013-05-02 20:50:00,
2013-05-02 16:56:00,66.6,36.6,29.94,NNE,22,7.2,7.2,33,0.00,,---,0.00,VWS V14.01,2013-05-02 20:56:00,
2013-05-02 17:02:00,65.3,36.2,29.94,ENE,68,2.7,2.7,34,0.00,,---,0.00,VWS V14.01,2013-05-02 21:02:00,
2013-05-02 17:08:00,63.5,35.4,29.94,ENE,68,6.0,6.0,35,0.00,,---,0.00,VWS V14.01,2013-05-02 21:08:00,
2013-05-02 17:13:00,62.6,34.6,29.97,ENE,68,1.6,3.4,35,0.00,,---,0.00,VWS V14.01,2013-05-02 21:13:00,
2013-05-02 17:18:00,62.2,35.0,29.97,ENE,68,2.7,3.4,36,0.00,,---,0.00,VWS V14.01,2013-05-02 21:18:00,
2013-05-02 17:23:00,62.1,34.8,29.97,NNE,22,2.0,2.9,36,0.00,,---,0.00,VWS V14.01,2013-05-02 21:23:00,
2013-05-02 17:28:00,61.9,34.7,29.97,WSW,248,1.1,2.0,36,0.00,,---,0.00,VWS V14.01,2013-05-02 21:28:00,
2013-05-02 17:34:00,61.5,34.3,29.97,ENE,68,3.8,3.8,36,0.00,,---,0.00,VWS V14.01,2013-05-02 21:34:00,
2013-05-02 17:39:00,61.2,34.0,29.97,NNE,22,2.7,4.0,36,0.00,,---,0.00,VWS V14.01,2013-05-02 21:39:00,
2013-05-02 17:44:00,61.0,33.9,29.97,ENE,68,2.9,3.8,36,0.00,,---,0.00,VWS V14.01,2013-05-02 21:44:00,
2013-05-02 17:50:00,60.3,33.9,29.97,East,90,0.0,2.0,37,0.00,,---,0.00,VWS V14.01,2013-05-02 21:50:00,
2013-05-02 17:55:00,59.7,33.4,29.97,WNW,292,1.1,3.6,37,0.00,,---,0.00,VWS V14.01,2013-05-02 21:55:00,
2013-05-02 18:00:00,59.7,33.4,29.97,ENE,68,0.0,1.3,37,0.00,,---,0.00,VWS V14.01,2013-05-02 22:00:00,
2013-05-02 18:05:00,59.4,33.8,29.97,ENE,68,1.3,1.3,38,0.00,,---,0.00,VWS V14.01,2013-05-02 22:05:00,
2013-05-02 18:10:00,58.6,32.5,29.97,NE,45,1.3,1.3,37,0.00,,---,0.00,VWS V14.01,2013-05-02 22:10:00,
2013-05-02 18:16:00,58.1,32.0,29.97,ENE,68,1.6,2.7,37,0.00,,---,0.00,VWS V14.01,2013-05-02 22:16:00,
2013-05-02 18:22:00,57.6,31.5,29.97,ENE,68,0.0,0.0,37,0.00,,---,0.00,VWS V14.01,2013-05-02 22:22:00,
2013-05-02 18:27:00,57.2,31.2,29.97,ENE,68,1.3,1.3,37,0.00,,---,0.00,VWS V14.01,2013-05-02 22:27:00,
2013-05-02 18:32:00,56.8,30.9,29.97,NE,45,0.0,1.1,37,0.00,,---,0.00,VWS V14.01,2013-05-02 22:32:00,
2013-05-02 18:37:00,56.7,30.7,29.97,NE,45,1.3,1.3,37,0.00,,---,0.00,VWS V14.01,2013-05-02 22:37:00,
2013-05-02 18:42:00,56.3,30.4,29.97,NE,45,0.0,0.0,37,0.00,,---,0.00,VWS V14.01,2013-05-02 22:42:00,
2013-05-02 18:48:00,56.1,30.2,29.97,East,90,1.6,2.5,37,0.00,,---,0.00,VWS V14.01,2013-05-02 22:48:00,
2013-05-02 18:53:00,55.9,30.1,29.97,ENE,68,0.0,2.7,37,0.00,,---,0.00,VWS V14.01,2013-05-02 22:53:00,
2013-05-02 18:58:00,55.8,29.9,29.97,ENE,68,1.1,1.1,37,0.00,,---,0.00,VWS V14.01,2013-05-02 22:58:00,
2013-05-02 19:03:00,55.6,30.4,29.97,ENE,68,0.0,1.3,38,0.00,,---,0.00,VWS V14.01,2013-05-02 23:03:00,
2013-05-02 19:08:00,55.4,30.2,29.97,NNE,22,0.0,0.0,38,0.00,,---,0.00,VWS V14.01,2013-05-02 23:08:00,
2013-05-02 19:14:00,55.2,30.1,29.97,NNE,22,2.0,2.0,38,0.00,,---,0.00,VWS V14.01,2013-05-02 23:14:00,
2013-05-02 19:20:00,55.0,29.3,29.97,East,90,2.0,2.7,37,0.00,,---,0.00,VWS V14.01,2013-05-02 23:20:00,
2013-05-02 19:25:00,54.7,28.9,29.97,ENE,68,2.9,2.9,37,0.00,,---,0.00,VWS V14.01,2013-05-02 23:25:00,
2013-05-02 19:31:00,54.5,28.8,29.97,East,90,0.0,3.4,37,0.00,,---,0.00,VWS V14.01,2013-05-02 23:31:00,
2013-05-02 19:36:00,54.1,27.8,29.97,ENE,68,2.9,2.9,36,0.00,,---,0.00,VWS V14.01,2013-05-02 23:36:00,
2013-05-02 19:41:00,54.0,27.6,29.97,North,0,2.5,2.5,36,0.00,,---,0.00,VWS V14.01,2013-05-02 23:41:00,
2013-05-02 19:47:00,53.8,27.5,29.97,ENE,68,1.3,3.1,36,0.00,,---,0.00,VWS V14.01,2013-05-02 23:47:00,
2013-05-02 19:52:00,53.4,27.8,29.97,North,0,1.6,3.4,37,0.00,,---,0.00,VWS V14.01,2013-05-02 23:52:00,
2013-05-02 19:58:00,53.2,27.7,30.00,ENE,68,1.6,1.6,37,0.00,,---,0.00,VWS V14.01,2013-05-02 23:58:00,
2013-05-02 20:03:00,53.1,27.5,30.00,ENE,68,2.5,2.5,37,0.00,,---,0.00,VWS V14.01,2013-05-03 00:03:00,
2013-05-02 20:08:00,52.3,26.9,30.00,ENE,68,0.0,1.6,37,0.00,,---,0.00,VWS V14.01,2013-05-03 00:08:00,
2013-05-02 20:13:00,51.8,26.4,30.00,ENE,68,2.0,2.0,37,0.00,,---,0.00,VWS V14.01,2013-05-03 00:13:00,
2013-05-02 20:19:00,51.4,26.0,30.00,East,90,2.5,2.7,37,0.00,,---,0.00,VWS V14.01,2013-05-03 00:19:00,
2013-05-02 20:24:00,50.9,26.2,30.00,East,90,1.6,2.2,38,0.00,,---,0.00,VWS V14.01,2013-05-03 00:24:00,
2013-05-02 20:30:00,50.5,25.9,30.00,ENE,68,1.6,2.9,38,0.00,,---,0.00,VWS V14.01,2013-05-03 00:30:00,
2013-05-02 20:36:00,50.2,25.6,30.00,ENE,68,2.5,2.5,38,0.00,,---,0.00,VWS V14.01,2013-05-03 00:36:00,
2013-05-02 20:41:00,49.8,25.9,30.00,ENE,68,1.1,1.3,39,0.00,,---,0.00,VWS V14.01,2013-05-03 00:41:00,
2013-05-02 20:46:00,49.6,25.7,30.00,ENE,68,1.6,2.2,39,0.00,,---,0.00,VWS V14.01,2013-05-03 00:46:00,
2013-05-02 20:51:00,49.1,25.2,30.00,ENE,68,0.0,0.0,39,0.00,,---,0.00,VWS V14.01,2013-05-03 00:51:00,
2013-05-02 20:56:00,48.4,24.6,30.00,ENE,68,0.0,0.0,39,0.00,,---,0.00,VWS V14.01,2013-05-03 00:56:00,
2013-05-02 21:02:00,47.8,24.7,30.00,West,270,3.1,3.6,40,0.00,,---,0.00,VWS V14.01,2013-05-03 01:02:00,
2013-05-02 21:07:00,47.3,25.4,30.00,West,270,0.0,0.0,42,0.00,,---,0.00,VWS V14.01,2013-05-03 01:07:00,
2013-05-02 21:12:00,46.9,25.1,30.00,WSW,248,0.0,0.0,42,0.00,,---,0.00,VWS V14.01,2013-05-03 01:12:00,
2013-05-02 21:18:00,46.2,25.5,30.03,WSW,248,0.0,0.0,44,0.00,,---,0.00,VWS V14.01,2013-05-03 01:18:00,
2013-05-02 21:23:00,45.9,26.3,30.03,WSW,248,0.0,1.6,46,0.00,,---,0.00,VWS V14.01,2013-05-03 01:23:00,
2013-05-02 21:28:00,45.3,26.3,30.00,WSW,248,1.6,2.5,47,0.00,,---,0.00,VWS V14.01,2013-05-03 01:28:00,
2013-05-02 21:33:00,45.0,26.0,30.00,WSW,248,0.0,0.0,47,0.00,,---,0.00,VWS V14.01,2013-05-03 01:33:00,
2013-05-02 21:38:00,44.8,25.8,30.00,WSW,248,0.0,0.0,47,0.00,,---,0.00,VWS V14.01,2013-05-03 01:38:00,
2013-05-02 21:43:00,44.2,25.8,30.03,WSW,248,1.1,1.6,48,0.00,,---,0.00,VWS V14.01,2013-05-03 01:43:00,
2013-05-02 21:49:00,43.7,25.8,30.03,WSW,248,1.6,2.0,49,0.00,,---,0.00,VWS V14.01,2013-05-03 01:49:00,
2013-05-02 21:54:00,43.2,25.3,30.03,WSW,248,0.0,0.0,49,0.00,,---,0.00,VWS V14.01,2013-05-03 01:54:00,
2013-05-02 22:00:00,42.8,25.0,30.03,WSW,248,0.0,0.0,49,0.00,,---,0.00,VWS V14.01,2013-05-03 02:00:00,
2013-05-02 22:05:00,42.3,25.4,30.03,WSW,248,0.0,0.0,51,0.00,,---,0.00,VWS V14.01,2013-05-03 02:05:00,
2013-05-02 22:11:00,42.1,25.7,30.03,WSW,248,0.0,1.1,52,0.00,,---,0.00,VWS V14.01,2013-05-03 02:11:00,
2013-05-02 22:16:00,41.5,25.2,30.03,WSW,248,1.3,2.2,52,0.00,,---,0.00,VWS V14.01,2013-05-03 02:16:00,
2013-05-02 22:21:00,41.2,24.9,30.03,WSW,248,2.0,2.0,52,0.00,,---,0.00,VWS V14.01,2013-05-03 02:21:00,
2013-05-02 22:26:00,40.8,25.0,30.03,WSW,248,1.6,1.6,53,0.00,,---,0.00,VWS V14.01,2013-05-03 02:26:00,
2013-05-02 22:32:00,40.5,25.1,30.03,WSW,248,1.1,1.1,54,0.00,,---,0.00,VWS V14.01,2013-05-03 02:32:00,
2013-05-02 22:37:00,40.1,25.7,30.03,WSW,248,0.0,1.3,56,0.00,,---,0.00,VWS V14.01,2013-05-03 02:37:00,
2013-05-02 22:42:00,39.6,24.7,30.03,WSW,248,1.6,2.0,55,0.00,,---,0.00,VWS V14.01,2013-05-03 02:42:00,
2013-05-02 22:47:00,39.2,24.8,30.03,WSW,248,0.0,0.0,56,0.00,,---,0.00,VWS V14.01,2013-05-03 02:47:00,
2013-05-02 22:52:00,38.8,24.5,30.03,WSW,248,0.0,0.0,56,0.00,,---,0.00,VWS V14.01,2013-05-03 02:52:00,
2013-05-02 22:57:00,38.7,24.8,30.03,WSW,248,0.0,0.0,57,0.00,,---,0.00,VWS V14.01,2013-05-03 02:57:00,
2013-05-02 23:03:00,38.5,24.6,30.03,WSW,248,1.3,1.6,57,0.00,,---,0.00,VWS V14.01,2013-05-03 03:03:00,
2013-05-02 23:08:00,38.3,25.2,30.03,WSW,248,1.3,1.3,59,0.00,,---,0.00,VWS V14.01,2013-05-03 03:08:00,
2013-05-02 23:14:00,37.9,24.9,30.03,WSW,248,1.3,1.3,59,0.00,,---,0.00,VWS V14.01,2013-05-03 03:14:00,
2013-05-02 23:19:00,37.6,25.0,30.03,WSW,248,0.0,1.3,60,0.00,,---,0.00,VWS V14.01,2013-05-03 03:19:00,
2013-05-02 23:25:00,37.4,24.8,30.03,WSW,248,0.0,0.0,60,0.00,,---,0.00,VWS V14.01,2013-05-03 03:25:00,
2013-05-02 23:31:00,37.2,25.0,30.03,WSW,248,0.0,0.0,61,0.00,,---,0.00,VWS V14.01,2013-05-03 03:31:00,
2013-05-02 23:36:00,36.9,25.1,30.03,WSW,248,0.0,0.0,62,0.00,,---,0.00,VWS V14.01,2013-05-03 03:36:00,
2013-05-02 23:42:00,36.7,25.3,30.03,WSW,248,2.0,2.0,63,0.00,,---,0.00,VWS V14.01,2013-05-03 03:42:00,
2013-05-02 23:48:00,36.5,24.7,30.03,WSW,248,1.6,2.0,62,0.00,,---,0.00,VWS V14.01,2013-05-03 03:48:00,
2013-05-02 23:53:00,36.3,25.3,30.03,WSW,248,0.9,1.6,64,0.00,,---,0.00,VWS V14.01,2013-05-03 03:53:00,
2013-05-02 23:59:00,36.0,25.0,30.06,SW,225,1.3,2.0,64,0.00,,---,0.00,VWS V14.01,2013-05-03 03:59:00,